sensor_id;sensor_type;location;lat;lon;timestamp;temperature;humidity
70079;DHT22;57451;52.496;13.456;2023-02-15T00:01:36;5.10;70.00
70079;DHT22;57451;52.496;13.456;2023-02-15T00:04:03;5.00;70.00
70079;DHT22;57451;52.496;13.456;2023-02-15T00:06:31;5.00;70.10
70079;DHT22;57451;52.496;13.456;2023-02-15T00:08:59;4.90;70.10
70079;DHT22;57451;52.496;13.456;2023-02-15T00:11:27;4.90;70.20
70079;DHT22;57451;52.496;13.456;2023-02-15T00:14:08;4.80;70.50
70079;DHT22;57451;52.496;13.456;2023-02-15T00:16:37;4.70;70.60
70079;DHT22;57451;52.496;13.456;2023-02-15T00:19:05;4.70;70.70
70079;DHT22;57451;52.496;13.456;2023-02-15T00:21:33;4.70;70.60
70079;DHT22;57451;52.496;13.456;2023-02-15T00:24:02;4.60;70.80
70079;DHT22;57451;52.496;13.456;2023-02-15T00:26:31;4.60;70.90
70079;DHT22;57451;52.496;13.456;2023-02-15T00:28:59;4.60;71.00
70079;DHT22;57451;52.496;13.456;2023-02-15T00:31:27;4.50;71.10
70079;DHT22;57451;52.496;13.456;2023-02-15T00:33:55;4.50;71.10
70079;DHT22;57451;52.496;13.456;2023-02-15T00:36:22;4.40;71.10
70079;DHT22;57451;52.496;13.456;2023-02-15T00:38:50;4.40;71.20
70079;DHT22;57451;52.496;13.456;2023-02-15T00:41:17;4.30;71.40
70079;DHT22;57451;52.496;13.456;2023-02-15T00:43:46;4.30;71.60
70079;DHT22;57451;52.496;13.456;2023-02-15T00:46:13;4.20;71.70
70079;DHT22;57451;52.496;13.456;2023-02-15T00:48:40;4.20;71.90
70079;DHT22;57451;52.496;13.456;2023-02-15T00:51:07;4.10;71.80
70079;DHT22;57451;52.496;13.456;2023-02-15T00:53:35;4.10;71.70
70079;DHT22;57451;52.496;13.456;2023-02-15T00:56:02;4.00;71.90
70079;DHT22;57451;52.496;13.456;2023-02-15T00:58:30;4.00;72.00
70079;DHT22;57451;52.496;13.456;2023-02-15T01:01:03;3.90;72.00
70079;DHT22;57451;52.496;13.456;2023-02-15T01:03:31;3.90;71.90
70079;DHT22;57451;52.496;13.456;2023-02-15T01:05:59;3.80;72.20
70079;DHT22;57451;52.496;13.456;2023-02-15T01:08:27;3.80;72.30
70079;DHT22;57451;52.496;13.456;2023-02-15T01:10:54;3.70;72.20
70079;DHT22;57451;52.496;13.456;2023-02-15T01:13:22;3.70;72.30
70079;DHT22;57451;52.496;13.456;2023-02-15T01:15:53;3.70;72.60
70079;DHT22;57451;52.496;13.456;2023-02-15T01:18:22;3.70;72.60
70079;DHT22;57451;52.496;13.456;2023-02-15T01:20:50;3.60;72.70
70079;DHT22;57451;52.496;13.456;2023-02-15T01:23:17;3.60;72.80
70079;DHT22;57451;52.496;13.456;2023-02-15T01:25:46;3.60;72.80
70079;DHT22;57451;52.496;13.456;2023-02-15T01:28:13;3.60;73.00
70079;DHT22;57451;52.496;13.456;2023-02-15T01:30:41;3.50;73.00
70079;DHT22;57451;52.496;13.456;2023-02-15T01:33:09;3.50;73.10
70079;DHT22;57451;52.496;13.456;2023-02-15T01:35:46;3.40;73.10
70079;DHT22;57451;52.496;13.456;2023-02-15T01:38:14;3.40;73.10
70079;DHT22;57451;52.496;13.456;2023-02-15T01:40:41;3.40;73.20
70079;DHT22;57451;52.496;13.456;2023-02-15T01:43:10;3.40;73.10
70079;DHT22;57451;52.496;13.456;2023-02-15T01:45:38;3.30;73.10
70079;DHT22;57451;52.496;13.456;2023-02-15T01:48:19;3.30;73.20
70079;DHT22;57451;52.496;13.456;2023-02-15T01:50:51;3.30;73.40
70079;DHT22;57451;52.496;13.456;2023-02-15T01:53:23;3.30;73.40
70079;DHT22;57451;52.496;13.456;2023-02-15T01:55:55;3.20;73.50
70079;DHT22;57451;52.496;13.456;2023-02-15T01:58:25;3.20;73.60
70079;DHT22;57451;52.496;13.456;2023-02-15T02:00:54;3.10;73.70
70079;DHT22;57451;52.496;13.456;2023-02-15T02:03:32;3.10;73.60
70079;DHT22;57451;52.496;13.456;2023-02-15T02:06:05;3.10;73.60
70079;DHT22;57451;52.496;13.456;2023-02-15T02:08:32;3.10;73.70
70079;DHT22;57451;52.496;13.456;2023-02-15T02:10:59;3.10;74.10
70079;DHT22;57451;52.496;13.456;2023-02-15T02:13:27;3.00;74.30
70079;DHT22;57451;52.496;13.456;2023-02-15T02:16:00;3.00;74.50
70079;DHT22;57451;52.496;13.456;2023-02-15T02:18:40;3.00;74.70
70079;DHT22;57451;52.496;13.456;2023-02-15T02:21:38;3.00;74.60
70079;DHT22;57451;52.496;13.456;2023-02-15T02:24:30;2.90;74.70
70079;DHT22;57451;52.496;13.456;2023-02-15T02:27:21;2.90;74.70
70079;DHT22;57451;52.496;13.456;2023-02-15T02:30:13;2.80;74.80
70079;DHT22;57451;52.496;13.456;2023-02-15T02:33:10;2.80;74.90
70079;DHT22;57451;52.496;13.456;2023-02-15T02:35:46;2.80;75.00
70079;DHT22;57451;52.496;13.456;2023-02-15T02:38:20;2.70;74.90
70079;DHT22;57451;52.496;13.456;2023-02-15T02:40:56;2.70;74.90
70079;DHT22;57451;52.496;13.456;2023-02-15T02:43:33;2.70;75.00
70079;DHT22;57451;52.496;13.456;2023-02-15T02:46:06;2.60;75.40
70079;DHT22;57451;52.496;13.456;2023-02-15T02:48:39;2.60;75.50
70079;DHT22;57451;52.496;13.456;2023-02-15T02:51:06;2.70;75.50
70079;DHT22;57451;52.496;13.456;2023-02-15T02:53:34;2.70;75.20
70079;DHT22;57451;52.496;13.456;2023-02-15T02:56:06;2.60;75.20
70079;DHT22;57451;52.496;13.456;2023-02-15T02:58:40;2.60;75.20
70079;DHT22;57451;52.496;13.456;2023-02-15T03:01:13;2.50;75.20
70079;DHT22;57451;52.496;13.456;2023-02-15T03:03:47;2.50;75.40
70079;DHT22;57451;52.496;13.456;2023-02-15T03:06:19;2.60;75.30
70079;DHT22;57451;52.496;13.456;2023-02-15T03:08:51;2.50;75.40
70079;DHT22;57451;52.496;13.456;2023-02-15T03:11:20;2.50;75.50
70079;DHT22;57451;52.496;13.456;2023-02-15T03:13:49;2.50;75.50
70079;DHT22;57451;52.496;13.456;2023-02-15T03:16:19;2.50;75.50
70079;DHT22;57451;52.496;13.456;2023-02-15T03:18:55;2.40;75.40
70079;DHT22;57451;52.496;13.456;2023-02-15T03:21:36;2.40;75.60
70079;DHT22;57451;52.496;13.456;2023-02-15T03:24:09;2.40;75.60
70079;DHT22;57451;52.496;13.456;2023-02-15T03:26:38;2.30;75.80
70079;DHT22;57451;52.496;13.456;2023-02-15T03:29:08;2.30;75.70
70079;DHT22;57451;52.496;13.456;2023-02-15T03:31:38;2.30;75.80
70079;DHT22;57451;52.496;13.456;2023-02-15T03:34:10;2.30;75.50
70079;DHT22;57451;52.496;13.456;2023-02-15T03:36:42;2.20;75.70
70079;DHT22;57451;52.496;13.456;2023-02-15T03:39:17;2.10;75.80
70079;DHT22;57451;52.496;13.456;2023-02-15T03:41:51;2.10;75.80
70079;DHT22;57451;52.496;13.456;2023-02-15T03:44:25;2.10;75.70
70079;DHT22;57451;52.496;13.456;2023-02-15T03:46:58;2.10;75.80
70079;DHT22;57451;52.496;13.456;2023-02-15T03:49:31;2.10;75.80
70079;DHT22;57451;52.496;13.456;2023-02-15T03:52:03;2.00;75.90
70079;DHT22;57451;52.496;13.456;2023-02-15T03:54:33;2.00;76.10
70079;DHT22;57451;52.496;13.456;2023-02-15T03:57:16;1.90;76.30
70079;DHT22;57451;52.496;13.456;2023-02-15T04:00:06;1.90;76.20
70079;DHT22;57451;52.496;13.456;2023-02-15T04:03:06;1.90;76.00
70079;DHT22;57451;52.496;13.456;2023-02-15T04:05:37;1.90;75.90
70079;DHT22;57451;52.496;13.456;2023-02-15T04:08:05;1.90;75.80
70079;DHT22;57451;52.496;13.456;2023-02-15T04:10:32;1.80;75.50
70079;DHT22;57451;52.496;13.456;2023-02-15T04:13:18;1.80;75.70
70079;DHT22;57451;52.496;13.456;2023-02-15T04:15:45;1.70;75.50
70079;DHT22;57451;52.496;13.456;2023-02-15T04:18:36;1.70;75.70
70079;DHT22;57451;52.496;13.456;2023-02-15T04:21:25;1.70;75.80
70079;DHT22;57451;52.496;13.456;2023-02-15T04:24:12;1.70;75.60
70079;DHT22;57451;52.496;13.456;2023-02-15T04:26:59;1.60;75.70
70079;DHT22;57451;52.496;13.456;2023-02-15T04:29:27;1.60;75.70
70079;DHT22;57451;52.496;13.456;2023-02-15T04:31:59;1.60;75.60
70079;DHT22;57451;52.496;13.456;2023-02-15T04:34:27;1.50;75.50
70079;DHT22;57451;52.496;13.456;2023-02-15T04:36:56;1.50;75.50
70079;DHT22;57451;52.496;13.456;2023-02-15T04:39:23;1.40;75.70
70079;DHT22;57451;52.496;13.456;2023-02-15T04:41:50;1.40;75.70
70079;DHT22;57451;52.496;13.456;2023-02-15T04:44:17;1.30;75.70
70079;DHT22;57451;52.496;13.456;2023-02-15T04:46:45;1.30;75.80
70079;DHT22;57451;52.496;13.456;2023-02-15T04:49:12;1.30;75.70
70079;DHT22;57451;52.496;13.456;2023-02-15T04:51:39;1.30;75.50
70079;DHT22;57451;52.496;13.456;2023-02-15T04:54:08;1.30;75.60
70079;DHT22;57451;52.496;13.456;2023-02-15T04:56:35;1.30;75.50
70079;DHT22;57451;52.496;13.456;2023-02-15T04:59:05;1.20;75.90
70079;DHT22;57451;52.496;13.456;2023-02-15T05:01:32;1.10;76.10
70079;DHT22;57451;52.496;13.456;2023-02-15T05:03:59;1.20;76.00
70079;DHT22;57451;52.496;13.456;2023-02-15T05:06:26;1.10;75.90
70079;DHT22;57451;52.496;13.456;2023-02-15T05:08:53;1.10;75.80
70079;DHT22;57451;52.496;13.456;2023-02-15T05:11:22;1.00;76.10
70079;DHT22;57451;52.496;13.456;2023-02-15T05:13:49;1.10;76.20
70079;DHT22;57451;52.496;13.456;2023-02-15T05:16:17;1.10;76.10
70079;DHT22;57451;52.496;13.456;2023-02-15T05:18:44;1.00;76.30
70079;DHT22;57451;52.496;13.456;2023-02-15T05:21:11;1.00;76.40
70079;DHT22;57451;52.496;13.456;2023-02-15T05:23:40;1.00;76.60
70079;DHT22;57451;52.496;13.456;2023-02-15T05:26:09;0.90;76.50
70079;DHT22;57451;52.496;13.456;2023-02-15T05:28:57;0.90;76.50
70079;DHT22;57451;52.496;13.456;2023-02-15T05:31:24;0.90;76.80
70079;DHT22;57451;52.496;13.456;2023-02-15T05:33:51;0.90;77.10
70079;DHT22;57451;52.496;13.456;2023-02-15T05:36:19;0.90;77.30
70079;DHT22;57451;52.496;13.456;2023-02-15T05:38:46;0.90;77.30
70079;DHT22;57451;52.496;13.456;2023-02-15T05:41:13;0.90;77.20
70079;DHT22;57451;52.496;13.456;2023-02-15T05:43:42;0.90;77.40
70079;DHT22;57451;52.496;13.456;2023-02-15T05:46:11;0.90;77.30
70079;DHT22;57451;52.496;13.456;2023-02-15T05:48:39;0.90;77.40
70079;DHT22;57451;52.496;13.456;2023-02-15T05:51:08;0.90;77.50
70079;DHT22;57451;52.496;13.456;2023-02-15T05:53:37;0.90;77.50
70079;DHT22;57451;52.496;13.456;2023-02-15T05:56:06;0.90;77.60
70079;DHT22;57451;52.496;13.456;2023-02-15T05:58:35;0.90;77.60
70079;DHT22;57451;52.496;13.456;2023-02-15T06:01:08;0.90;77.80
70079;DHT22;57451;52.496;13.456;2023-02-15T06:03:36;0.90;78.00
70079;DHT22;57451;52.496;13.456;2023-02-15T06:06:04;1.00;78.10
70079;DHT22;57451;52.496;13.456;2023-02-15T06:08:32;1.00;78.10
70079;DHT22;57451;52.496;13.456;2023-02-15T06:10:59;1.00;78.00
70079;DHT22;57451;52.496;13.456;2023-02-15T06:13:27;1.00;78.10
70079;DHT22;57451;52.496;13.456;2023-02-15T06:15:54;1.00;78.00
70079;DHT22;57451;52.496;13.456;2023-02-15T06:18:21;0.80;78.50
70079;DHT22;57451;52.496;13.456;2023-02-15T06:20:50;0.90;78.50
70079;DHT22;57451;52.496;13.456;2023-02-15T06:23:17;0.90;78.50
70079;DHT22;57451;52.496;13.456;2023-02-15T06:25:45;0.90;78.50
70079;DHT22;57451;52.496;13.456;2023-02-15T06:28:13;0.90;78.50
70079;DHT22;57451;52.496;13.456;2023-02-15T06:30:40;0.90;78.40
70079;DHT22;57451;52.496;13.456;2023-02-15T06:33:07;0.90;78.40
70079;DHT22;57451;52.496;13.456;2023-02-15T06:35:34;0.90;78.90
70079;DHT22;57451;52.496;13.456;2023-02-15T06:38:03;0.90;79.10
70079;DHT22;57451;52.496;13.456;2023-02-15T06:40:30;0.90;79.20
70079;DHT22;57451;52.496;13.456;2023-02-15T06:42:57;0.90;79.10
70079;DHT22;57451;52.496;13.456;2023-02-15T06:45:25;0.90;79.20
70079;DHT22;57451;52.496;13.456;2023-02-15T06:47:52;0.90;79.10
70079;DHT22;57451;52.496;13.456;2023-02-15T06:50:19;0.90;79.20
70079;DHT22;57451;52.496;13.456;2023-02-15T06:52:46;0.90;79.00
70079;DHT22;57451;52.496;13.456;2023-02-15T06:55:15;0.90;78.60
70079;DHT22;57451;52.496;13.456;2023-02-15T06:57:42;0.80;79.20
70079;DHT22;57451;52.496;13.456;2023-02-15T07:00:11;0.80;80.10
70079;DHT22;57451;52.496;13.456;2023-02-15T07:02:38;0.90;80.10
70079;DHT22;57451;52.496;13.456;2023-02-15T07:05:06;0.80;80.10
70079;DHT22;57451;52.496;13.456;2023-02-15T07:07:33;0.80;80.50
70079;DHT22;57451;52.496;13.456;2023-02-15T07:10:00;0.90;80.70
70079;DHT22;57451;52.496;13.456;2023-02-15T07:12:29;0.90;80.50
70079;DHT22;57451;52.496;13.456;2023-02-15T07:15:09;1.00;80.20
70079;DHT22;57451;52.496;13.456;2023-02-15T07:17:36;1.00;80.50
70079;DHT22;57451;52.496;13.456;2023-02-15T07:20:06;1.00;80.50
70079;DHT22;57451;52.496;13.456;2023-02-15T07:22:35;1.00;80.20
70079;DHT22;57451;52.496;13.456;2023-02-15T07:25:04;1.00;79.50
70079;DHT22;57451;52.496;13.456;2023-02-15T07:27:33;0.80;80.10
70079;DHT22;57451;52.496;13.456;2023-02-15T07:30:01;0.90;79.90
70079;DHT22;57451;52.496;13.456;2023-02-15T07:32:28;0.90;79.80
70079;DHT22;57451;52.496;13.456;2023-02-15T07:34:56;0.90;80.00
70079;DHT22;57451;52.496;13.456;2023-02-15T07:37:24;1.00;79.90
70079;DHT22;57451;52.496;13.456;2023-02-15T07:39:52;1.00;79.80
70079;DHT22;57451;52.496;13.456;2023-02-15T07:42:19;1.00;79.70
70079;DHT22;57451;52.496;13.456;2023-02-15T07:44:49;1.00;79.30
70079;DHT22;57451;52.496;13.456;2023-02-15T07:47:16;1.00;79.30
70079;DHT22;57451;52.496;13.456;2023-02-15T07:49:44;0.90;79.40
70079;DHT22;57451;52.496;13.456;2023-02-15T07:52:11;0.90;79.80
70079;DHT22;57451;52.496;13.456;2023-02-15T07:54:38;1.00;80.10
70079;DHT22;57451;52.496;13.456;2023-02-15T07:57:06;1.00;79.70
70079;DHT22;57451;52.496;13.456;2023-02-15T07:59:33;1.00;79.60
70079;DHT22;57451;52.496;13.456;2023-02-15T08:02:02;1.10;79.60
70079;DHT22;57451;52.496;13.456;2023-02-15T08:04:29;1.10;79.50
70079;DHT22;57451;52.496;13.456;2023-02-15T08:06:56;1.10;79.50
70079;DHT22;57451;52.496;13.456;2023-02-15T08:09:23;1.00;79.70
70079;DHT22;57451;52.496;13.456;2023-02-15T08:11:51;1.00;79.60
70079;DHT22;57451;52.496;13.456;2023-02-15T08:14:19;1.10;79.90
70079;DHT22;57451;52.496;13.456;2023-02-15T08:16:49;1.10;79.60
70079;DHT22;57451;52.496;13.456;2023-02-15T08:19:19;1.10;79.60
70079;DHT22;57451;52.496;13.456;2023-02-15T08:21:49;1.10;79.70
70079;DHT22;57451;52.496;13.456;2023-02-15T08:24:18;1.10;79.70
70079;DHT22;57451;52.496;13.456;2023-02-15T08:26:46;1.10;79.70
70079;DHT22;57451;52.496;13.456;2023-02-15T08:29:16;1.20;79.90
70079;DHT22;57451;52.496;13.456;2023-02-15T08:31:44;1.20;79.60
70079;DHT22;57451;52.496;13.456;2023-02-15T08:34:14;1.20;79.60
70079;DHT22;57451;52.496;13.456;2023-02-15T08:36:43;1.20;79.70
70079;DHT22;57451;52.496;13.456;2023-02-15T08:39:14;1.20;79.90
70079;DHT22;57451;52.496;13.456;2023-02-15T08:41:43;1.20;79.70
70079;DHT22;57451;52.496;13.456;2023-02-15T08:44:11;1.20;80.10
70079;DHT22;57451;52.496;13.456;2023-02-15T08:46:40;1.30;80.10
70079;DHT22;57451;52.496;13.456;2023-02-15T08:49:09;1.30;80.00
70079;DHT22;57451;52.496;13.456;2023-02-15T08:51:37;1.40;79.80
70079;DHT22;57451;52.496;13.456;2023-02-15T08:54:08;1.30;79.80
70079;DHT22;57451;52.496;13.456;2023-02-15T08:56:37;1.40;80.30
70079;DHT22;57451;52.496;13.456;2023-02-15T08:59:07;1.50;80.20
70079;DHT22;57451;52.496;13.456;2023-02-15T09:01:37;1.60;79.90
70079;DHT22;57451;52.496;13.456;2023-02-15T09:04:06;1.50;79.90
70079;DHT22;57451;52.496;13.456;2023-02-15T09:06:37;1.60;79.90
70079;DHT22;57451;52.496;13.456;2023-02-15T09:09:06;1.60;79.70
70079;DHT22;57451;52.496;13.456;2023-02-15T09:11:36;1.60;79.90
70079;DHT22;57451;52.496;13.456;2023-02-15T09:14:05;1.70;79.90
70079;DHT22;57451;52.496;13.456;2023-02-15T09:16:34;1.70;79.50
70079;DHT22;57451;52.496;13.456;2023-02-15T09:19:02;1.70;79.70
70079;DHT22;57451;52.496;13.456;2023-02-15T09:21:32;1.70;79.50
70079;DHT22;57451;52.496;13.456;2023-02-15T09:24:01;1.80;79.60
70079;DHT22;57451;52.496;13.456;2023-02-15T09:26:31;1.80;79.70
70079;DHT22;57451;52.496;13.456;2023-02-15T09:29:00;1.90;79.60
70079;DHT22;57451;52.496;13.456;2023-02-15T09:31:32;2.00;79.50
70079;DHT22;57451;52.496;13.456;2023-02-15T09:34:01;2.00;79.20
70079;DHT22;57451;52.496;13.456;2023-02-15T09:36:30;2.10;79.10
70079;DHT22;57451;52.496;13.456;2023-02-15T09:38:59;2.10;79.00
70079;DHT22;57451;52.496;13.456;2023-02-15T09:41:47;2.20;78.70
70079;DHT22;57451;52.496;13.456;2023-02-15T09:44:28;2.20;78.70
70079;DHT22;57451;52.496;13.456;2023-02-15T09:47:21;2.20;78.80
70079;DHT22;57451;52.496;13.456;2023-02-15T09:49:57;2.20;78.70
70079;DHT22;57451;52.496;13.456;2023-02-15T09:52:38;2.20;78.60
70079;DHT22;57451;52.496;13.456;2023-02-15T09:55:24;2.20;78.60
70079;DHT22;57451;52.496;13.456;2023-02-15T09:58:07;2.30;79.00
70079;DHT22;57451;52.496;13.456;2023-02-15T10:00:44;2.40;78.60
70079;DHT22;57451;52.496;13.456;2023-02-15T10:03:25;2.50;78.10
70079;DHT22;57451;52.496;13.456;2023-02-15T10:06:22;2.60;77.90
70079;DHT22;57451;52.496;13.456;2023-02-15T10:09:09;2.70;77.70
70079;DHT22;57451;52.496;13.456;2023-02-15T10:11:50;2.70;77.60
70079;DHT22;57451;52.496;13.456;2023-02-15T10:14:39;2.80;77.40
70079;DHT22;57451;52.496;13.456;2023-02-15T10:17:24;2.90;77.10
70079;DHT22;57451;52.496;13.456;2023-02-15T10:20:02;2.90;77.00
70079;DHT22;57451;52.496;13.456;2023-02-15T10:22:47;3.00;76.90
70079;DHT22;57451;52.496;13.456;2023-02-15T10:25:28;3.10;76.90
70079;DHT22;57451;52.496;13.456;2023-02-15T10:28:04;3.10;76.90
70079;DHT22;57451;52.496;13.456;2023-02-15T10:30:38;3.30;76.60
70079;DHT22;57451;52.496;13.456;2023-02-15T10:33:18;3.40;76.50
70079;DHT22;57451;52.496;13.456;2023-02-15T10:35:54;3.50;76.60
70079;DHT22;57451;52.496;13.456;2023-02-15T10:38:28;3.70;76.40
70079;DHT22;57451;52.496;13.456;2023-02-15T10:41:09;3.80;76.10
70079;DHT22;57451;52.496;13.456;2023-02-15T10:43:56;4.00;76.20
70079;DHT22;57451;52.496;13.456;2023-02-15T10:46:41;4.10;75.00
70079;DHT22;57451;52.496;13.456;2023-02-15T10:49:26;4.30;74.40
70079;DHT22;57451;52.496;13.456;2023-02-15T10:52:06;4.50;73.90
70079;DHT22;57451;52.496;13.456;2023-02-15T10:54:43;4.70;73.70
70079;DHT22;57451;52.496;13.456;2023-02-15T10:57:16;4.80;73.70
70079;DHT22;57451;52.496;13.456;2023-02-15T10:59:58;5.10;73.60
70079;DHT22;57451;52.496;13.456;2023-02-15T11:02:42;5.40;72.20
70079;DHT22;57451;52.496;13.456;2023-02-15T11:05:26;5.70;70.70
70079;DHT22;57451;52.496;13.456;2023-02-15T11:07:59;6.00;70.00
70079;DHT22;57451;52.496;13.456;2023-02-15T11:10:31;6.20;69.10
70079;DHT22;57451;52.496;13.456;2023-02-15T11:13:05;6.50;68.90
70079;DHT22;57451;52.496;13.456;2023-02-15T11:15:36;6.70;67.50
70079;DHT22;57451;52.496;13.456;2023-02-15T11:18:12;7.00;66.90
70079;DHT22;57451;52.496;13.456;2023-02-15T11:20:45;7.20;66.40
70079;DHT22;57451;52.496;13.456;2023-02-15T11:23:16;7.40;65.70
70079;DHT22;57451;52.496;13.456;2023-02-15T11:25:47;7.60;64.40
70079;DHT22;57451;52.496;13.456;2023-02-15T11:28:23;7.80;64.20
70079;DHT22;57451;52.496;13.456;2023-02-15T11:30:54;8.00;63.90
70079;DHT22;57451;52.496;13.456;2023-02-15T11:33:27;8.20;62.40
70079;DHT22;57451;52.496;13.456;2023-02-15T11:35:59;8.40;61.60
70079;DHT22;57451;52.496;13.456;2023-02-15T11:38:31;8.60;62.90
70079;DHT22;57451;52.496;13.456;2023-02-15T11:41:03;8.80;61.20
70079;DHT22;57451;52.496;13.456;2023-02-15T11:43:35;9.00;60.10
70079;DHT22;57451;52.496;13.456;2023-02-15T11:46:05;9.30;60.90
70079;DHT22;57451;52.496;13.456;2023-02-15T11:48:34;9.50;58.70
70079;DHT22;57451;52.496;13.456;2023-02-15T11:51:02;9.60;58.00
70079;DHT22;57451;52.496;13.456;2023-02-15T11:53:32;9.80;57.60
70079;DHT22;57451;52.496;13.456;2023-02-15T11:56:01;9.90;57.70
70079;DHT22;57451;52.496;13.456;2023-02-15T11:58:35;10.10;57.80
70079;DHT22;57451;52.496;13.456;2023-02-15T12:01:11;10.20;57.70
70079;DHT22;57451;52.496;13.456;2023-02-15T12:03:46;10.30;56.00
70079;DHT22;57451;52.496;13.456;2023-02-15T12:06:19;10.40;56.90
70079;DHT22;57451;52.496;13.456;2023-02-15T12:08:53;10.40;56.40
70079;DHT22;57451;52.496;13.456;2023-02-15T12:11:26;10.50;57.40
70079;DHT22;57451;52.496;13.456;2023-02-15T12:13:58;10.80;57.00
70079;DHT22;57451;52.496;13.456;2023-02-15T12:16:27;10.90;56.60
70079;DHT22;57451;52.496;13.456;2023-02-15T12:18:58;11.10;56.70
70079;DHT22;57451;52.496;13.456;2023-02-15T12:21:29;11.30;56.90
70079;DHT22;57451;52.496;13.456;2023-02-15T12:24:00;11.40;54.90
70079;DHT22;57451;52.496;13.456;2023-02-15T12:26:29;11.60;54.60
70079;DHT22;57451;52.496;13.456;2023-02-15T12:28:59;11.80;53.90
70079;DHT22;57451;52.496;13.456;2023-02-15T12:31:32;12.00;55.00
70079;DHT22;57451;52.496;13.456;2023-02-15T12:34:10;12.10;54.10
70079;DHT22;57451;52.496;13.456;2023-02-15T12:36:43;12.20;53.40
70079;DHT22;57451;52.496;13.456;2023-02-15T12:39:20;12.40;52.90
70079;DHT22;57451;52.496;13.456;2023-02-15T12:41:59;12.50;51.90
70079;DHT22;57451;52.496;13.456;2023-02-15T12:44:28;12.60;50.90
70079;DHT22;57451;52.496;13.456;2023-02-15T12:46:58;12.70;51.40
70079;DHT22;57451;52.496;13.456;2023-02-15T12:49:28;12.60;51.90
70079;DHT22;57451;52.496;13.456;2023-02-15T12:51:57;12.70;52.60
70079;DHT22;57451;52.496;13.456;2023-02-15T12:54:39;12.80;52.50
70079;DHT22;57451;52.496;13.456;2023-02-15T12:57:26;13.00;52.90
70079;DHT22;57451;52.496;13.456;2023-02-15T12:59:55;13.10;52.50
70079;DHT22;57451;52.496;13.456;2023-02-15T13:02:26;13.30;50.90
70079;DHT22;57451;52.496;13.456;2023-02-15T13:04:56;13.50;50.60
70079;DHT22;57451;52.496;13.456;2023-02-15T13:07:29;13.70;50.20
70079;DHT22;57451;52.496;13.456;2023-02-15T13:09:58;14.00;51.00
70079;DHT22;57451;52.496;13.456;2023-02-15T13:12:27;14.30;50.10
70079;DHT22;57451;52.496;13.456;2023-02-15T13:14:58;14.50;51.40
70079;DHT22;57451;52.496;13.456;2023-02-15T13:17:28;14.70;49.70
70079;DHT22;57451;52.496;13.456;2023-02-15T13:20:03;14.90;49.20
70079;DHT22;57451;52.496;13.456;2023-02-15T13:22:38;14.80;48.90
70079;DHT22;57451;52.496;13.456;2023-02-15T13:25:14;15.10;49.10
70079;DHT22;57451;52.496;13.456;2023-02-15T13:27:46;15.20;48.00
70079;DHT22;57451;52.496;13.456;2023-02-15T13:30:23;15.20;48.00
70079;DHT22;57451;52.496;13.456;2023-02-15T13:32:55;15.30;48.10
70079;DHT22;57451;52.496;13.456;2023-02-15T13:35:26;15.30;46.60
70079;DHT22;57451;52.496;13.456;2023-02-15T13:38:16;15.20;47.20
70079;DHT22;57451;52.496;13.456;2023-02-15T13:40:48;15.20;47.70
70079;DHT22;57451;52.496;13.456;2023-02-15T13:43:37;15.10;48.70
70079;DHT22;57451;52.496;13.456;2023-02-15T13:46:17;15.10;49.00
70079;DHT22;57451;52.496;13.456;2023-02-15T13:48:55;15.10;48.10
70079;DHT22;57451;52.496;13.456;2023-02-15T13:51:30;15.20;48.10
70079;DHT22;57451;52.496;13.456;2023-02-15T13:54:13;15.20;48.80
70079;DHT22;57451;52.496;13.456;2023-02-15T13:56:53;15.50;48.00
70079;DHT22;57451;52.496;13.456;2023-02-15T13:59:38;15.70;47.00
70079;DHT22;57451;52.496;13.456;2023-02-15T14:02:30;15.80;47.00
70079;DHT22;57451;52.496;13.456;2023-02-15T14:05:22;16.00;46.60
70079;DHT22;57451;52.496;13.456;2023-02-15T14:08:01;16.00;46.10
70079;DHT22;57451;52.496;13.456;2023-02-15T14:10:41;16.10;46.10
70079;DHT22;57451;52.496;13.456;2023-02-15T14:13:36;16.00;46.00
70079;DHT22;57451;52.496;13.456;2023-02-15T14:16:13;16.10;46.70
70079;DHT22;57451;52.496;13.456;2023-02-15T14:18:46;16.30;47.50
70079;DHT22;57451;52.496;13.456;2023-02-15T14:21:18;16.30;47.50
70079;DHT22;57451;52.496;13.456;2023-02-15T14:24:01;16.50;48.10
70079;DHT22;57451;52.496;13.456;2023-02-15T14:26:41;16.60;46.20
70079;DHT22;57451;52.496;13.456;2023-02-15T14:29:24;16.60;46.40
70079;DHT22;57451;52.496;13.456;2023-02-15T14:31:55;16.80;47.50
70079;DHT22;57451;52.496;13.456;2023-02-15T14:34:25;17.00;46.40
70079;DHT22;57451;52.496;13.456;2023-02-15T14:36:55;17.20;46.70
70079;DHT22;57451;52.496;13.456;2023-02-15T14:39:29;17.30;47.10
70079;DHT22;57451;52.496;13.456;2023-02-15T14:42:21;17.50;47.10
70079;DHT22;57451;52.496;13.456;2023-02-15T14:44:57;17.60;45.30
70079;DHT22;57451;52.496;13.456;2023-02-15T14:47:28;17.60;45.20
70079;DHT22;57451;52.496;13.456;2023-02-15T14:49:58;17.50;45.10
70079;DHT22;57451;52.496;13.456;2023-02-15T14:52:25;17.50;43.70
70079;DHT22;57451;52.496;13.456;2023-02-15T14:54:56;17.50;44.40
70079;DHT22;57451;52.496;13.456;2023-02-15T14:57:34;17.30;43.60
70079;DHT22;57451;52.496;13.456;2023-02-15T15:00:30;17.20;44.00
70079;DHT22;57451;52.496;13.456;2023-02-15T15:02:58;17.00;45.50
70079;DHT22;57451;52.496;13.456;2023-02-15T15:05:32;16.90;45.50
70079;DHT22;57451;52.496;13.456;2023-02-15T15:08:02;16.70;46.40
70079;DHT22;57451;52.496;13.456;2023-02-15T15:10:39;16.50;45.30
70079;DHT22;57451;52.496;13.456;2023-02-15T15:13:35;16.40;45.20
70079;DHT22;57451;52.496;13.456;2023-02-15T15:16:31;16.10;45.20
70079;DHT22;57451;52.496;13.456;2023-02-15T15:18:59;15.80;46.50
70079;DHT22;57451;52.496;13.456;2023-02-15T15:21:51;15.60;46.00
70079;DHT22;57451;52.496;13.456;2023-02-15T15:24:45;15.40;46.30
70079;DHT22;57451;52.496;13.456;2023-02-15T15:27:38;15.10;47.60
70079;DHT22;57451;52.496;13.456;2023-02-15T15:39:39;14.30;50.30
70079;DHT22;57451;52.496;13.456;2023-02-15T15:42:13;14.20;51.20
70079;DHT22;57451;52.496;13.456;2023-02-15T15:45:08;14.00;51.30
70079;DHT22;57451;52.496;13.456;2023-02-15T15:47:57;13.80;51.70
70079;DHT22;57451;52.496;13.456;2023-02-15T15:50:38;13.70;51.90
70079;DHT22;57451;52.496;13.456;2023-02-15T15:53:06;13.50;53.00
70079;DHT22;57451;52.496;13.456;2023-02-15T15:55:49;13.40;52.80
70079;DHT22;57451;52.496;13.456;2023-02-15T15:58:18;13.20;53.00
70079;DHT22;57451;52.496;13.456;2023-02-15T16:00:48;13.10;53.20
70079;DHT22;57451;52.496;13.456;2023-02-15T16:03:21;12.90;53.80
70079;DHT22;57451;52.496;13.456;2023-02-15T16:05:51;12.80;53.20
70079;DHT22;57451;52.496;13.456;2023-02-15T16:08:27;12.70;52.80
70079;DHT22;57451;52.496;13.456;2023-02-15T16:10:55;12.60;53.00
70079;DHT22;57451;52.496;13.456;2023-02-15T16:13:23;12.40;53.10